Archival Weather

Snohomish County (Paine Fld)

Everett, Washington (KPAE)

Report from: Tuesday, November 7, 2023 9:53 PM PST
Current time: Sunday, June 16, 2024 11:02 PM PDT

Current weather – Weather history – Daily summaries
Weather forecast

Temperature9.4°C (48.9°F)
Wind chill8.9°C (48.1°F)
Dew point3.9°C (39.0°F)
Winds 3 kts (1.5 m/s, 3.5 mph) East-Southeast (110°)
Visibility10 mi. (16.1 km)
Clouds Ceiling: Broken clouds 3,400 ft. (1,036 m)
Overcast 5,000 ft. (1,524 m)
Altimeter30.34 in.Hg (1027 mB)
Precip last 3 hoursTrace
Relative humidity69 %
Density altitude-1,039 ft. (-317 m)
Sea-level pressure102.8 kPa (1028 mB, 30.35 in.Hg)
Max temp last 6 hours11.1°C (52.0°F)
Min temp last 6 hours8.9°C (48.0°F)
Remarks Fully automated report
Automated weather observing station with precipitation discriminator
Pressure rising more quickly
Flight conditions Visual Meteorological Conditions
Raw dataKPAE 080553Z AUTO 11003KT 10SM BKN034 OVC050 09/04 A3034 RMK AO2 SLP277 60000 T00940039 10111 20089 53024
An error has occurred. This application may no longer respond until reloaded. Reload 🗙